Aérodrome :
LOGIN :

S'inscrire | Disclaimer

   EN    FR    IT 

 










Légende :    VFR   VFR Marginal   IFR   IFR Intensif   IFR Très Intensif
Visi : 
Plafond : 
>= 8 km
>= 3000ft
5 à 8 km
1000 à 3000 ft
1500m à 5 km
500 à 1000 ft
800 à 1500m
200 à 500 ft
< 800m
< 200 ft
Symboles :   Orages  Brouillard  Fortes neiges  Fortes précipitations  Vent > 20 kt
SIGMETs :   Divers  Orages  Givrage  Turbulence  Onde Orograph.  Cendres Volcan.







- Altitude de l'aérodrome : 138 ft
- Code IATA : BIO


LEBB - Bilbao

DERNIER METAR :
  • 221800Z 28004KT 250V310 CAVOK 24/17 Q1024 NOSIG

METARs EXPIRÉS :
  • 221730Z 32008KT CAVOK 25/17 Q1023 NOSIG
  • 221700Z 32008KT CAVOK 26/17 Q1023 NOSIG
  • 221630Z 34006KT 280V030 CAVOK 27/17 Q1023 NOSIG
  • 221600Z 31006KT 260V340 CAVOK 27/17 Q1023 NOSIG
  • 221530Z 29007KT 230V320 CAVOK 27/17 Q1023 NOSIG

TAF TAF LEBB
Valide du 22 à 18h jusqu'au 23 à 18h UTC


221700Z 2218/2318 VRB05KT CAVOK TX27/2314Z TN16/2306Z
PROB40
TEMPO 2300/2307 3000 BR
Pas de NOTAMs connus pour ce terrain.



MET'MAP, la Météo Aéronautique d'un coup d'oeil ! - Copyright ORBIFLY Décembre 2007 - Disclaimer

ORBIFLY MET'MAP TEAM :

Programmation & Développement : Alexandra Zaïnal
Conception & Développement : Baudouin d'Aumeries
Co-Programmation & Développement : Marc-Olivier Méhu
Soutien technique & logistique : Manuel Goepfert

Contact : metmap@orbifly.com




SOURCES & CREDITS :

   NOAA